sensor_id;sensor_type;location;lat;lon;timestamp;temperature;humidity
57088;DHT22;42965;52.846;6.614;2023-03-19T00:00:18;9.80;99.90
57088;DHT22;42965;52.846;6.614;2023-03-19T00:02:44;9.80;99.90
57088;DHT22;42965;52.846;6.614;2023-03-19T00:05:16;9.80;99.90
57088;DHT22;42965;52.846;6.614;2023-03-19T00:07:43;9.80;99.90
57088;DHT22;42965;52.846;6.614;2023-03-19T00:10:10;9.70;99.90
57088;DHT22;42965;52.846;6.614;2023-03-19T00:12:36;9.80;99.90
57088;DHT22;42965;52.846;6.614;2023-03-19T00:15:03;9.80;99.90
57088;DHT22;42965;52.846;6.614;2023-03-19T00:17:29;9.90;99.90
57088;DHT22;42965;52.846;6.614;2023-03-19T00:19:56;9.90;99.90
57088;DHT22;42965;52.846;6.614;2023-03-19T00:22:23;9.90;99.90
57088;DHT22;42965;52.846;6.614;2023-03-19T00:24:50;9.90;99.90
57088;DHT22;42965;52.846;6.614;2023-03-19T00:27:17;10.00;99.90
57088;DHT22;42965;52.846;6.614;2023-03-19T00:29:43;10.00;99.90
57088;DHT22;42965;52.846;6.614;2023-03-19T00:32:09;10.00;99.90
57088;DHT22;42965;52.846;6.614;2023-03-19T00:34:36;10.00;99.90
57088;DHT22;42965;52.846;6.614;2023-03-19T00:37:02;10.00;99.90
57088;DHT22;42965;52.846;6.614;2023-03-19T00:39:28;10.00;99.90
57088;DHT22;42965;52.846;6.614;2023-03-19T00:41:54;10.10;99.90
57088;DHT22;42965;52.846;6.614;2023-03-19T00:44:21;10.10;99.90
57088;DHT22;42965;52.846;6.614;2023-03-19T00:46:47;10.10;99.90
57088;DHT22;42965;52.846;6.614;2023-03-19T00:49:13;10.10;99.90
57088;DHT22;42965;52.846;6.614;2023-03-19T00:51:40;10.10;99.90
57088;DHT22;42965;52.846;6.614;2023-03-19T00:54:10;10.20;99.90
57088;DHT22;42965;52.846;6.614;2023-03-19T00:56:36;10.20;99.90
57088;DHT22;42965;52.846;6.614;2023-03-19T00:59:03;10.20;99.90
57088;DHT22;42965;52.846;6.614;2023-03-19T01:01:29;10.20;99.90
57088;DHT22;42965;52.846;6.614;2023-03-19T01:03:56;10.30;99.90
57088;DHT22;42965;52.846;6.614;2023-03-19T01:06:22;10.30;99.90
57088;DHT22;42965;52.846;6.614;2023-03-19T01:08:48;10.30;99.90
57088;DHT22;42965;52.846;6.614;2023-03-19T01:11:14;10.40;99.90
57088;DHT22;42965;52.846;6.614;2023-03-19T01:13:42;10.30;99.90
57088;DHT22;42965;52.846;6.614;2023-03-19T01:16:09;10.40;99.90
57088;DHT22;42965;52.846;6.614;2023-03-19T01:18:36;10.40;99.90
57088;DHT22;42965;52.846;6.614;2023-03-19T01:21:02;10.40;99.90
57088;DHT22;42965;52.846;6.614;2023-03-19T01:23:30;10.40;99.90
57088;DHT22;42965;52.846;6.614;2023-03-19T01:25:57;10.40;99.90
57088;DHT22;42965;52.846;6.614;2023-03-19T01:28:26;10.40;99.90
57088;DHT22;42965;52.846;6.614;2023-03-19T01:30:52;10.40;99.90
57088;DHT22;42965;52.846;6.614;2023-03-19T01:33:41;10.40;99.90
57088;DHT22;42965;52.846;6.614;2023-03-19T01:36:16;10.30;99.90
57088;DHT22;42965;52.846;6.614;2023-03-19T01:39:12;10.30;99.90
57088;DHT22;42965;52.846;6.614;2023-03-19T01:41:39;10.20;99.90
57088;DHT22;42965;52.846;6.614;2023-03-19T01:44:30;10.30;99.90
57088;DHT22;42965;52.846;6.614;2023-03-19T01:47:33;10.30;99.90
57088;DHT22;42965;52.846;6.614;2023-03-19T01:50:26;10.20;99.90
57088;DHT22;42965;52.846;6.614;2023-03-19T01:53:26;10.20;99.90
57088;DHT22;42965;52.846;6.614;2023-03-19T01:58:48;10.10;99.90
57088;DHT22;42965;52.846;6.614;2023-03-19T02:01:25;10.10;99.90
57088;DHT22;42965;52.846;6.614;2023-03-19T02:03:53;10.00;99.90
57088;DHT22;42965;52.846;6.614;2023-03-19T02:06:26;10.00;99.90
57088;DHT22;42965;52.846;6.614;2023-03-19T02:08:55;10.00;99.90
57088;DHT22;42965;52.846;6.614;2023-03-19T02:11:22;9.90;99.90
57088;DHT22;42965;52.846;6.614;2023-03-19T02:13:52;9.90;99.90
57088;DHT22;42965;52.846;6.614;2023-03-19T02:16:18;9.90;99.90
57088;DHT22;42965;52.846;6.614;2023-03-19T02:18:46;9.80;99.90
57088;DHT22;42965;52.846;6.614;2023-03-19T02:21:15;9.90;99.90
57088;DHT22;42965;52.846;6.614;2023-03-19T02:23:46;9.80;99.90
57088;DHT22;42965;52.846;6.614;2023-03-19T02:26:21;9.80;99.90
57088;DHT22;42965;52.846;6.614;2023-03-19T02:28:50;9.80;99.90
57088;DHT22;42965;52.846;6.614;2023-03-19T02:31:22;9.70;99.90
57088;DHT22;42965;52.846;6.614;2023-03-19T02:34:14;9.70;99.90
57088;DHT22;42965;52.846;6.614;2023-03-19T02:37:00;9.70;99.90
57088;DHT22;42965;52.846;6.614;2023-03-19T02:39:37;9.70;99.90
57088;DHT22;42965;52.846;6.614;2023-03-19T02:42:04;9.70;99.90
57088;DHT22;42965;52.846;6.614;2023-03-19T02:44:31;9.70;99.90
57088;DHT22;42965;52.846;6.614;2023-03-19T02:46:58;9.70;99.90
57088;DHT22;42965;52.846;6.614;2023-03-19T02:49:24;9.70;99.90
57088;DHT22;42965;52.846;6.614;2023-03-19T02:51:53;9.70;99.90
57088;DHT22;42965;52.846;6.614;2023-03-19T02:54:19;9.70;99.90
57088;DHT22;42965;52.846;6.614;2023-03-19T02:56:46;9.80;99.90
57088;DHT22;42965;52.846;6.614;2023-03-19T02:59:14;9.70;99.90
57088;DHT22;42965;52.846;6.614;2023-03-19T03:01:40;9.70;99.90
57088;DHT22;42965;52.846;6.614;2023-03-19T03:04:09;9.70;99.90
57088;DHT22;42965;52.846;6.614;2023-03-19T03:06:36;9.70;99.90
57088;DHT22;42965;52.846;6.614;2023-03-19T03:09:03;9.70;99.90
57088;DHT22;42965;52.846;6.614;2023-03-19T03:11:31;9.70;99.90
57088;DHT22;42965;52.846;6.614;2023-03-19T03:13:57;9.60;99.90
57088;DHT22;42965;52.846;6.614;2023-03-19T03:16:24;9.60;99.90
57088;DHT22;42965;52.846;6.614;2023-03-19T03:18:50;9.60;99.90
57088;DHT22;42965;52.846;6.614;2023-03-19T03:21:19;9.60;99.90
57088;DHT22;42965;52.846;6.614;2023-03-19T03:23:47;9.50;99.90
57088;DHT22;42965;52.846;6.614;2023-03-19T03:26:14;9.60;99.90
57088;DHT22;42965;52.846;6.614;2023-03-19T03:28:40;9.60;99.90
57088;DHT22;42965;52.846;6.614;2023-03-19T03:31:06;9.60;99.90
57088;DHT22;42965;52.846;6.614;2023-03-19T03:33:33;9.60;99.90
57088;DHT22;42965;52.846;6.614;2023-03-19T03:36:00;9.50;99.90
57088;DHT22;42965;52.846;6.614;2023-03-19T03:38:26;9.60;99.90
57088;DHT22;42965;52.846;6.614;2023-03-19T03:40:52;9.60;99.90
57088;DHT22;42965;52.846;6.614;2023-03-19T03:43:24;9.60;99.90
57088;DHT22;42965;52.846;6.614;2023-03-19T03:45:52;9.60;99.90
57088;DHT22;42965;52.846;6.614;2023-03-19T03:48:19;9.60;99.90
57088;DHT22;42965;52.846;6.614;2023-03-19T03:50:46;9.70;99.90
57088;DHT22;42965;52.846;6.614;2023-03-19T03:53:16;9.70;99.90
57088;DHT22;42965;52.846;6.614;2023-03-19T03:55:43;9.70;99.90
57088;DHT22;42965;52.846;6.614;2023-03-19T03:58:09;9.70;99.90
57088;DHT22;42965;52.846;6.614;2023-03-19T04:00:38;9.70;99.90
57088;DHT22;42965;52.846;6.614;2023-03-19T04:03:04;9.70;99.90
57088;DHT22;42965;52.846;6.614;2023-03-19T04:05:31;9.80;99.90
57088;DHT22;42965;52.846;6.614;2023-03-19T04:07:57;9.80;99.90
57088;DHT22;42965;52.846;6.614;2023-03-19T04:10:24;9.80;99.90
57088;DHT22;42965;52.846;6.614;2023-03-19T04:12:53;9.80;99.90
57088;DHT22;42965;52.846;6.614;2023-03-19T04:15:20;9.80;99.90
57088;DHT22;42965;52.846;6.614;2023-03-19T04:17:47;9.80;99.90
57088;DHT22;42965;52.846;6.614;2023-03-19T04:20:15;9.80;99.90
57088;DHT22;42965;52.846;6.614;2023-03-19T04:22:44;9.80;99.90
57088;DHT22;42965;52.846;6.614;2023-03-19T04:25:11;9.80;99.90
57088;DHT22;42965;52.846;6.614;2023-03-19T04:27:38;9.80;99.90
57088;DHT22;42965;52.846;6.614;2023-03-19T04:30:07;9.80;99.90
57088;DHT22;42965;52.846;6.614;2023-03-19T04:32:34;9.80;99.90
57088;DHT22;42965;52.846;6.614;2023-03-19T04:35:02;9.80;99.90
57088;DHT22;42965;52.846;6.614;2023-03-19T04:37:28;9.70;99.90
57088;DHT22;42965;52.846;6.614;2023-03-19T04:39:58;9.70;99.90
57088;DHT22;42965;52.846;6.614;2023-03-19T04:42:28;9.60;99.90
57088;DHT22;42965;52.846;6.614;2023-03-19T04:45:06;9.60;99.90
57088;DHT22;42965;52.846;6.614;2023-03-19T04:47:33;9.50;99.90
57088;DHT22;42965;52.846;6.614;2023-03-19T04:50:00;9.40;99.90
57088;DHT22;42965;52.846;6.614;2023-03-19T04:52:26;9.30;99.90
57088;DHT22;42965;52.846;6.614;2023-03-19T04:54:54;9.20;99.90
57088;DHT22;42965;52.846;6.614;2023-03-19T04:57:20;9.20;99.90
57088;DHT22;42965;52.846;6.614;2023-03-19T04:59:48;9.10;99.90
57088;DHT22;42965;52.846;6.614;2023-03-19T05:02:15;9.10;99.90
57088;DHT22;42965;52.846;6.614;2023-03-19T05:04:42;9.10;99.90
57088;DHT22;42965;52.846;6.614;2023-03-19T05:07:12;9.00;99.90
57088;DHT22;42965;52.846;6.614;2023-03-19T05:09:45;9.00;99.90
57088;DHT22;42965;52.846;6.614;2023-03-19T05:12:14;9.00;99.90
57088;DHT22;42965;52.846;6.614;2023-03-19T05:14:45;8.90;99.90
57088;DHT22;42965;52.846;6.614;2023-03-19T05:17:18;8.80;99.90
57088;DHT22;42965;52.846;6.614;2023-03-19T05:19:57;8.80;99.90
57088;DHT22;42965;52.846;6.614;2023-03-19T05:22:24;8.70;99.90
57088;DHT22;42965;52.846;6.614;2023-03-19T05:24:52;8.60;99.90
57088;DHT22;42965;52.846;6.614;2023-03-19T05:31:14;8.50;99.90
57088;DHT22;42965;52.846;6.614;2023-03-19T05:33:45;8.40;99.90
57088;DHT22;42965;52.846;6.614;2023-03-19T05:36:12;8.40;99.90
57088;DHT22;42965;52.846;6.614;2023-03-19T05:39:01;8.30;99.90
57088;DHT22;42965;52.846;6.614;2023-03-19T05:41:33;8.30;99.90
57088;DHT22;42965;52.846;6.614;2023-03-19T05:44:03;8.30;99.90
57088;DHT22;42965;52.846;6.614;2023-03-19T05:47:02;8.20;99.90
57088;DHT22;42965;52.846;6.614;2023-03-19T05:49:32;8.20;99.90
57088;DHT22;42965;52.846;6.614;2023-03-19T05:51:58;8.20;99.90
57088;DHT22;42965;52.846;6.614;2023-03-19T05:54:25;8.20;99.90
57088;DHT22;42965;52.846;6.614;2023-03-19T05:57:16;8.20;99.90
57088;DHT22;42965;52.846;6.614;2023-03-19T06:00:09;8.20;99.90
57088;DHT22;42965;52.846;6.614;2023-03-19T06:02:36;8.30;99.90
57088;DHT22;42965;52.846;6.614;2023-03-19T06:05:28;8.30;99.90
57088;DHT22;42965;52.846;6.614;2023-03-19T06:07:59;8.30;99.90
57088;DHT22;42965;52.846;6.614;2023-03-19T06:10:46;8.40;99.90
57088;DHT22;42965;52.846;6.614;2023-03-19T06:13:13;8.40;99.90
57088;DHT22;42965;52.846;6.614;2023-03-19T06:15:44;8.40;99.90
57088;DHT22;42965;52.846;6.614;2023-03-19T06:18:22;8.30;99.90
57088;DHT22;42965;52.846;6.614;2023-03-19T06:20:49;8.40;99.90
57088;DHT22;42965;52.846;6.614;2023-03-19T06:23:16;8.40;99.90
57088;DHT22;42965;52.846;6.614;2023-03-19T06:29:38;8.40;99.90
57088;DHT22;42965;52.846;6.614;2023-03-19T06:32:29;8.40;99.90
57088;DHT22;42965;52.846;6.614;2023-03-19T06:35:00;8.40;99.90
57088;DHT22;42965;52.846;6.614;2023-03-19T06:37:26;8.40;99.90
57088;DHT22;42965;52.846;6.614;2023-03-19T06:39:53;8.50;99.90
57088;DHT22;42965;52.846;6.614;2023-03-19T06:42:20;8.50;99.90
57088;DHT22;42965;52.846;6.614;2023-03-19T06:44:47;8.50;99.90
57088;DHT22;42965;52.846;6.614;2023-03-19T06:47:13;8.50;99.90
57088;DHT22;42965;52.846;6.614;2023-03-19T06:49:42;8.50;99.90
57088;DHT22;42965;52.846;6.614;2023-03-19T06:52:08;8.50;99.90
57088;DHT22;42965;52.846;6.614;2023-03-19T06:54:34;8.40;99.90
57088;DHT22;42965;52.846;6.614;2023-03-19T06:57:04;8.40;99.90
57088;DHT22;42965;52.846;6.614;2023-03-19T06:59:30;8.30;99.90
57088;DHT22;42965;52.846;6.614;2023-03-19T07:01:57;8.40;99.90
57088;DHT22;42965;52.846;6.614;2023-03-19T07:04:23;8.50;99.90
57088;DHT22;42965;52.846;6.614;2023-03-19T07:06:49;8.60;99.90
57088;DHT22;42965;52.846;6.614;2023-03-19T07:09:16;8.80;99.90
57088;DHT22;42965;52.846;6.614;2023-03-19T07:11:44;9.00;99.90
57088;DHT22;42965;52.846;6.614;2023-03-19T07:14:11;9.10;99.90
57088;DHT22;42965;52.846;6.614;2023-03-19T07:16:37;9.50;99.90
57088;DHT22;42965;52.846;6.614;2023-03-19T07:19:03;9.70;99.90
57088;DHT22;42965;52.846;6.614;2023-03-19T07:21:29;9.90;99.90
57088;DHT22;42965;52.846;6.614;2023-03-19T07:23:56;10.20;99.90
57088;DHT22;42965;52.846;6.614;2023-03-19T07:26:22;10.40;99.90
57088;DHT22;42965;52.846;6.614;2023-03-19T07:28:48;10.70;99.90
57088;DHT22;42965;52.846;6.614;2023-03-19T07:31:14;10.90;99.90
57088;DHT22;42965;52.846;6.614;2023-03-19T07:33:42;11.10;99.90
57088;DHT22;42965;52.846;6.614;2023-03-19T07:36:09;11.20;99.90
57088;DHT22;42965;52.846;6.614;2023-03-19T07:38:35;11.30;99.90
57088;DHT22;42965;52.846;6.614;2023-03-19T07:41:01;11.20;99.90
57088;DHT22;42965;52.846;6.614;2023-03-19T07:43:27;11.00;99.90
57088;DHT22;42965;52.846;6.614;2023-03-19T07:45:53;11.00;99.90
57088;DHT22;42965;52.846;6.614;2023-03-19T07:48:20;10.70;99.90
57088;DHT22;42965;52.846;6.614;2023-03-19T07:50:49;10.60;99.90
57088;DHT22;42965;52.846;6.614;2023-03-19T07:53:16;10.80;99.90
57088;DHT22;42965;52.846;6.614;2023-03-19T07:55:43;11.30;99.90
57088;DHT22;42965;52.846;6.614;2023-03-19T07:58:09;11.60;99.90
57088;DHT22;42965;52.846;6.614;2023-03-19T08:00:36;12.00;99.90
57088;DHT22;42965;52.846;6.614;2023-03-19T08:03:02;12.40;99.90
57088;DHT22;42965;52.846;6.614;2023-03-19T08:05:29;13.00;99.90
57088;DHT22;42965;52.846;6.614;2023-03-19T08:07:57;13.20;99.90
57088;DHT22;42965;52.846;6.614;2023-03-19T08:10:24;13.60;99.90
57088;DHT22;42965;52.846;6.614;2023-03-19T08:12:50;14.00;99.90
57088;DHT22;42965;52.846;6.614;2023-03-19T08:15:17;14.10;99.90
57088;DHT22;42965;52.846;6.614;2023-03-19T08:17:44;14.50;99.90
57088;DHT22;42965;52.846;6.614;2023-03-19T08:20:12;14.50;99.90
57088;DHT22;42965;52.846;6.614;2023-03-19T08:22:39;13.90;99.90
57088;DHT22;42965;52.846;6.614;2023-03-19T08:25:07;14.10;99.90
57088;DHT22;42965;52.846;6.614;2023-03-19T08:27:34;14.20;99.90
57088;DHT22;42965;52.846;6.614;2023-03-19T08:30:06;14.10;99.90
57088;DHT22;42965;52.846;6.614;2023-03-19T08:32:32;14.20;99.90
57088;DHT22;42965;52.846;6.614;2023-03-19T08:35:03;14.30;99.90
57088;DHT22;42965;52.846;6.614;2023-03-19T08:37:32;14.50;99.90
57088;DHT22;42965;52.846;6.614;2023-03-19T08:39:58;14.30;99.90
57088;DHT22;42965;52.846;6.614;2023-03-19T08:42:27;13.90;99.90
57088;DHT22;42965;52.846;6.614;2023-03-19T08:44:54;13.20;99.90
57088;DHT22;42965;52.846;6.614;2023-03-19T08:47:20;12.90;99.90
57088;DHT22;42965;52.846;6.614;2023-03-19T08:49:52;12.60;99.90
57088;DHT22;42965;52.846;6.614;2023-03-19T08:52:19;12.60;99.90
57088;DHT22;42965;52.846;6.614;2023-03-19T08:54:45;12.80;99.90
57088;DHT22;42965;52.846;6.614;2023-03-19T08:57:11;12.70;99.90
57088;DHT22;42965;52.846;6.614;2023-03-19T08:59:38;12.50;99.90
57088;DHT22;42965;52.846;6.614;2023-03-19T09:02:04;12.40;99.90
57088;DHT22;42965;52.846;6.614;2023-03-19T09:04:30;12.40;99.90
57088;DHT22;42965;52.846;6.614;2023-03-19T09:07:01;12.30;99.90
57088;DHT22;42965;52.846;6.614;2023-03-19T09:09:27;12.20;99.90
57088;DHT22;42965;52.846;6.614;2023-03-19T09:11:54;12.20;99.90
57088;DHT22;42965;52.846;6.614;2023-03-19T09:14:20;12.20;99.90
57088;DHT22;42965;52.846;6.614;2023-03-19T09:16:48;12.10;99.90
57088;DHT22;42965;52.846;6.614;2023-03-19T09:19:14;12.00;99.90
57088;DHT22;42965;52.846;6.614;2023-03-19T09:21:41;12.00;99.90
57088;DHT22;42965;52.846;6.614;2023-03-19T09:24:07;12.10;99.90
57088;DHT22;42965;52.846;6.614;2023-03-19T09:26:33;12.30;99.90
57088;DHT22;42965;52.846;6.614;2023-03-19T09:29:00;12.60;99.90
57088;DHT22;42965;52.846;6.614;2023-03-19T09:31:26;12.80;99.90
57088;DHT22;42965;52.846;6.614;2023-03-19T09:33:53;12.80;99.90
57088;DHT22;42965;52.846;6.614;2023-03-19T09:36:20;13.20;99.90
57088;DHT22;42965;52.846;6.614;2023-03-19T09:38:46;13.60;99.90
57088;DHT22;42965;52.846;6.614;2023-03-19T09:46:37;13.20;99.90
57088;DHT22;42965;52.846;6.614;2023-03-19T09:49:24;13.10;99.90
57088;DHT22;42965;52.846;6.614;2023-03-19T09:51:57;13.20;99.90
57088;DHT22;42965;52.846;6.614;2023-03-19T09:57:13;13.00;99.90
57088;DHT22;42965;52.846;6.614;2023-03-19T09:59:40;13.00;99.90
57088;DHT22;42965;52.846;6.614;2023-03-19T10:16:19;12.90;99.90
57088;DHT22;42965;52.846;6.614;2023-03-19T10:18:51;13.00;99.90
57088;DHT22;42965;52.846;6.614;2023-03-19T10:21:55;12.90;99.90
57088;DHT22;42965;52.846;6.614;2023-03-19T10:24:40;12.90;99.90
57088;DHT22;42965;52.846;6.614;2023-03-19T10:27:19;12.90;99.90
57088;DHT22;42965;52.846;6.614;2023-03-19T10:29:45;13.00;99.90
57088;DHT22;42965;52.846;6.614;2023-03-19T10:32:16;13.10;99.90
57088;DHT22;42965;52.846;6.614;2023-03-19T10:34:48;13.20;99.90
57088;DHT22;42965;52.846;6.614;2023-03-19T10:37:26;13.10;99.90
57088;DHT22;42965;52.846;6.614;2023-03-19T10:39:58;13.10;99.90
57088;DHT22;42965;52.846;6.614;2023-03-19T10:47:58;13.70;99.90
57088;DHT22;42965;52.846;6.614;2023-03-19T10:58:35;13.60;99.90
57088;DHT22;42965;52.846;6.614;2023-03-19T11:01:11;13.70;99.90
57088;DHT22;42965;52.846;6.614;2023-03-19T11:06:17;13.80;99.90
57088;DHT22;42965;52.846;6.614;2023-03-19T11:09:00;13.80;99.90
57088;DHT22;42965;52.846;6.614;2023-03-19T11:14:16;15.20;99.90
57088;DHT22;42965;52.846;6.614;2023-03-19T11:19:31;15.50;99.90
57088;DHT22;42965;52.846;6.614;2023-03-19T11:24:38;16.80;99.90
57088;DHT22;42965;52.846;6.614;2023-03-19T11:27:06;17.10;99.90
57088;DHT22;42965;52.846;6.614;2023-03-19T11:29:38;17.50;99.90
57088;DHT22;42965;52.846;6.614;2023-03-19T11:32:10;17.40;99.90
57088;DHT22;42965;52.846;6.614;2023-03-19T11:35:00;17.00;99.90
57088;DHT22;42965;52.846;6.614;2023-03-19T11:51:23;16.10;99.90
57088;DHT22;42965;52.846;6.614;2023-03-19T11:54:14;17.10;99.90
57088;DHT22;42965;52.846;6.614;2023-03-19T11:56:47;18.00;99.90
57088;DHT22;42965;52.846;6.614;2023-03-19T11:59:58;18.60;99.90
57088;DHT22;42965;52.846;6.614;2023-03-19T12:05:30;18.90;99.90
57088;DHT22;42965;52.846;6.614;2023-03-19T12:08:35;18.30;99.90
57088;DHT22;42965;52.846;6.614;2023-03-19T12:16:54;17.00;99.90
57088;DHT22;42965;52.846;6.614;2023-03-19T12:19:36;17.20;99.90
57088;DHT22;42965;52.846;6.614;2023-03-19T12:22:41;17.40;99.90
57088;DHT22;42965;52.846;6.614;2023-03-19T12:28:23;17.70;99.90
57088;DHT22;42965;52.846;6.614;2023-03-19T12:36:37;17.90;99.90
57088;DHT22;42965;52.846;6.614;2023-03-19T12:39:14;18.10;99.90
57088;DHT22;42965;52.846;6.614;2023-03-19T12:41:43;17.90;99.90
57088;DHT22;42965;52.846;6.614;2023-03-19T12:44:33;17.40;99.90
57088;DHT22;42965;52.846;6.614;2023-03-19T12:47:43;17.50;99.90
57088;DHT22;42965;52.846;6.614;2023-03-19T12:50:11;16.90;99.90
57088;DHT22;42965;52.846;6.614;2023-03-19T12:52:57;16.60;99.90
57088;DHT22;42965;52.846;6.614;2023-03-19T12:55:42;17.00;99.90
57088;DHT22;42965;52.846;6.614;2023-03-19T12:58:37;18.30;99.90
57088;DHT22;42965;52.846;6.614;2023-03-19T13:01:12;19.00;99.90
57088;DHT22;42965;52.846;6.614;2023-03-19T13:03:58;19.30;99.90
57088;DHT22;42965;52.846;6.614;2023-03-19T13:06:42;20.30;99.90
57088;DHT22;42965;52.846;6.614;2023-03-19T13:09:25;20.80;99.90
57088;DHT22;42965;52.846;6.614;2023-03-19T13:12:06;20.70;99.90
57088;DHT22;42965;52.846;6.614;2023-03-19T13:23:03;21.60;93.00
57088;DHT22;42965;52.846;6.614;2023-03-19T13:25:34;22.00;92.00
57088;DHT22;42965;52.846;6.614;2023-03-19T13:28:08;21.50;92.50
57088;DHT22;42965;52.846;6.614;2023-03-19T13:30:35;21.60;89.30
57088;DHT22;42965;52.846;6.614;2023-03-19T13:33:06;22.10;97.40
57088;DHT22;42965;52.846;6.614;2023-03-19T13:36:04;22.20;95.00
57088;DHT22;42965;52.846;6.614;2023-03-19T13:38:45;20.70;89.60
57088;DHT22;42965;52.846;6.614;2023-03-19T13:46:53;20.90;98.40
57088;DHT22;42965;52.846;6.614;2023-03-19T13:49:24;21.20;95.60
57088;DHT22;42965;52.846;6.614;2023-03-19T13:58:20;22.20;78.80
57088;DHT22;42965;52.846;6.614;2023-03-19T14:01:10;22.10;78.10
57088;DHT22;42965;52.846;6.614;2023-03-19T14:03:40;22.60;77.90
57088;DHT22;42965;52.846;6.614;2023-03-19T14:09:03;22.80;70.80
57088;DHT22;42965;52.846;6.614;2023-03-19T14:11:32;22.40;72.40
57088;DHT22;42965;52.846;6.614;2023-03-19T14:14:03;21.70;80.10
57088;DHT22;42965;52.846;6.614;2023-03-19T14:16:33;22.10;85.00
57088;DHT22;42965;52.846;6.614;2023-03-19T14:19:01;22.30;74.00
57088;DHT22;42965;52.846;6.614;2023-03-19T14:21:41;21.60;82.90
57088;DHT22;42965;52.846;6.614;2023-03-19T14:27:02;20.60;99.90
57088;DHT22;42965;52.846;6.614;2023-03-19T14:29:30;20.20;99.90
57088;DHT22;42965;52.846;6.614;2023-03-19T14:32:05;20.20;99.00
57088;DHT22;42965;52.846;6.614;2023-03-19T14:34:36;20.40;98.10
57088;DHT22;42965;52.846;6.614;2023-03-19T14:37:37;20.40;99.90
57088;DHT22;42965;52.846;6.614;2023-03-19T14:40:36;20.70;96.60
57088;DHT22;42965;52.846;6.614;2023-03-19T14:55:01;20.70;92.90
57088;DHT22;42965;52.846;6.614;2023-03-19T14:57:28;20.50;97.80
57088;DHT22;42965;52.846;6.614;2023-03-19T14:59:55;20.30;98.30
57088;DHT22;42965;52.846;6.614;2023-03-19T15:02:44;19.90;99.90
57088;DHT22;42965;52.846;6.614;2023-03-19T15:05:28;18.80;99.90
57088;DHT22;42965;52.846;6.614;2023-03-19T15:08:00;17.30;99.90
57088;DHT22;42965;52.846;6.614;2023-03-19T15:10:31;16.40;99.90
57088;DHT22;42965;52.846;6.614;2023-03-19T15:13:20;15.90;99.90
57088;DHT22;42965;52.846;6.614;2023-03-19T15:18:35;14.70;99.90
57088;DHT22;42965;52.846;6.614;2023-03-19T15:21:02;14.60;99.90
57088;DHT22;42965;52.846;6.614;2023-03-19T15:23:33;14.20;99.90
57088;DHT22;42965;52.846;6.614;2023-03-19T15:26:02;14.10;99.90
57088;DHT22;42965;52.846;6.614;2023-03-19T15:28:31;13.90;99.90
57088;DHT22;42965;52.846;6.614;2023-03-19T15:31:03;13.80;99.90
57088;DHT22;42965;52.846;6.614;2023-03-19T15:33:32;13.60;99.90
57088;DHT22;42965;52.846;6.614;2023-03-19T15:36:12;13.40;99.90
57088;DHT22;42965;52.846;6.614;2023-03-19T15:39:00;13.20;99.90
57088;DHT22;42965;52.846;6.614;2023-03-19T15:41:35;13.10;99.90
57088;DHT22;42965;52.846;6.614;2023-03-19T15:44:14;12.90;99.90
57088;DHT22;42965;52.846;6.614;2023-03-19T15:46:43;12.90;99.90
57088;DHT22;42965;52.846;6.614;2023-03-19T15:51:46;12.80;99.90
57088;DHT22;42965;52.846;6.614;2023-03-19T15:54:17;12.60;99.90
57088;DHT22;42965;52.846;6.614;2023-03-19T15:56:43;12.60;99.90
57088;DHT22;42965;52.846;6.614;2023-03-19T15:59:10;12.60;99.90
57088;DHT22;42965;52.846;6.614;2023-03-19T16:01:37;12.60;99.90
57088;DHT22;42965;52.846;6.614;2023-03-19T16:04:06;12.60;99.90
57088;DHT22;42965;52.846;6.614;2023-03-19T16:06:37;12.50;99.90
57088;DHT22;42965;52.846;6.614;2023-03-19T16:09:30;12.40;99.90
57088;DHT22;42965;52.846;6.614;2023-03-19T16:11:59;12.30;99.90
57088;DHT22;42965;52.846;6.614;2023-03-19T16:14:42;12.30;99.90
57088;DHT22;42965;52.846;6.614;2023-03-19T16:17:16;12.20;99.90
57088;DHT22;42965;52.846;6.614;2023-03-19T16:20:00;12.10;99.90
57088;DHT22;42965;52.846;6.614;2023-03-19T16:22:30;12.00;99.90
57088;DHT22;42965;52.846;6.614;2023-03-19T16:24:58;11.90;99.90
57088;DHT22;42965;52.846;6.614;2023-03-19T16:29:58;12.00;99.90
57088;DHT22;42965;52.846;6.614;2023-03-19T16:32:26;11.90;99.90
57088;DHT22;42965;52.846;6.614;2023-03-19T16:35:13;11.90;99.90
57088;DHT22;42965;52.846;6.614;2023-03-19T16:37:44;11.80;99.90
57088;DHT22;42965;52.846;6.614;2023-03-19T16:50:13;11.70;99.90
57088;DHT22;42965;52.846;6.614;2023-03-19T16:52:41;11.70;99.90
57088;DHT22;42965;52.846;6.614;2023-03-19T16:55:31;11.70;99.90
57088;DHT22;42965;52.846;6.614;2023-03-19T16:58:02;11.70;99.90
57088;DHT22;42965;52.846;6.614;2023-03-19T17:00:31;11.50;99.90
57088;DHT22;42965;52.846;6.614;2023-03-19T17:03:01;11.50;99.90
57088;DHT22;42965;52.846;6.614;2023-03-19T17:05:28;11.60;99.90
57088;DHT22;42965;52.846;6.614;2023-03-19T17:07:58;11.70;99.90
57088;DHT22;42965;52.846;6.614;2023-03-19T17:10:27;11.50;99.90
57088;DHT22;42965;52.846;6.614;2023-03-19T17:12:55;11.50;99.90
57088;DHT22;42965;52.846;6.614;2023-03-19T17:17:54;11.60;99.90
57088;DHT22;42965;52.846;6.614;2023-03-19T17:20:24;11.70;99.90
57088;DHT22;42965;52.846;6.614;2023-03-19T17:22:53;11.70;99.90
57088;DHT22;42965;52.846;6.614;2023-03-19T17:25:19;11.70;99.90
57088;DHT22;42965;52.846;6.614;2023-03-19T17:27:45;11.70;99.90
57088;DHT22;42965;52.846;6.614;2023-03-19T17:30:12;11.70;99.90
57088;DHT22;42965;52.846;6.614;2023-03-19T17:32:42;11.70;99.90
57088;DHT22;42965;52.846;6.614;2023-03-19T17:35:19;11.70;99.90
57088;DHT22;42965;52.846;6.614;2023-03-19T17:37:47;11.60;99.90
57088;DHT22;42965;52.846;6.614;2023-03-19T17:42:45;11.70;99.90
57088;DHT22;42965;52.846;6.614;2023-03-19T17:45:18;11.70;99.90
57088;DHT22;42965;52.846;6.614;2023-03-19T17:47:49;11.60;99.90
57088;DHT22;42965;52.846;6.614;2023-03-19T17:50:21;11.60;99.90
57088;DHT22;42965;52.846;6.614;2023-03-19T17:52:48;11.60;99.90
57088;DHT22;42965;52.846;6.614;2023-03-19T17:55:20;11.60;99.90
57088;DHT22;42965;52.846;6.614;2023-03-19T17:57:48;11.50;99.90
57088;DHT22;42965;52.846;6.614;2023-03-19T18:00:17;11.60;99.90
57088;DHT22;42965;52.846;6.614;2023-03-19T18:02:46;11.50;99.90
57088;DHT22;42965;52.846;6.614;2023-03-19T18:05:20;11.40;99.90
57088;DHT22;42965;52.846;6.614;2023-03-19T18:07:49;11.50;99.90
57088;DHT22;42965;52.846;6.614;2023-03-19T18:10:18;11.40;99.90
57088;DHT22;42965;52.846;6.614;2023-03-19T18:12:45;11.30;99.90
57088;DHT22;42965;52.846;6.614;2023-03-19T18:15:13;11.30;99.90
57088;DHT22;42965;52.846;6.614;2023-03-19T18:17:43;11.30;99.90
57088;DHT22;42965;52.846;6.614;2023-03-19T18:20:16;11.20;99.90
57088;DHT22;42965;52.846;6.614;2023-03-19T18:22:43;11.20;99.90
57088;DHT22;42965;52.846;6.614;2023-03-19T18:25:15;11.20;99.90
57088;DHT22;42965;52.846;6.614;2023-03-19T18:27:42;11.10;99.90
57088;DHT22;42965;52.846;6.614;2023-03-19T18:30:16;11.10;99.90